sensor_id;sensor_type;location;lat;lon;timestamp;P1;durP1;ratioP1;P2;durP2;ratioP2
7128;SDS011;3606;52.930;8.644;2024-03-08T00:01:47;27.57;;;16.77;;
7128;SDS011;3606;52.930;8.644;2024-03-08T00:04:13;30.83;;;16.37;;
7128;SDS011;3606;52.930;8.644;2024-03-08T00:06:40;29.33;;;16.23;;
7128;SDS011;3606;52.930;8.644;2024-03-08T00:09:06;30.53;;;16.60;;
7128;SDS011;3606;52.930;8.644;2024-03-08T00:11:33;32.10;;;16.07;;
7128;SDS011;3606;52.930;8.644;2024-03-08T00:14:00;34.23;;;16.67;;
7128;SDS011;3606;52.930;8.644;2024-03-08T00:16:25;36.53;;;17.00;;
7128;SDS011;3606;52.930;8.644;2024-03-08T00:18:51;32.33;;;15.83;;
7128;SDS011;3606;52.930;8.644;2024-03-08T00:21:16;26.77;;;16.00;;
7128;SDS011;3606;52.930;8.644;2024-03-08T00:23:42;29.87;;;15.60;;
7128;SDS011;3606;52.930;8.644;2024-03-08T00:26:08;26.43;;;15.57;;
7128;SDS011;3606;52.930;8.644;2024-03-08T00:28:33;30.33;;;16.23;;
7128;SDS011;3606;52.930;8.644;2024-03-08T00:30:59;35.03;;;16.20;;
7128;SDS011;3606;52.930;8.644;2024-03-08T00:33:25;26.90;;;15.17;;
7128;SDS011;3606;52.930;8.644;2024-03-08T00:35:52;26.53;;;15.27;;
7128;SDS011;3606;52.930;8.644;2024-03-08T00:38:18;31.97;;;16.03;;
7128;SDS011;3606;52.930;8.644;2024-03-08T00:40:44;32.20;;;17.23;;
7128;SDS011;3606;52.930;8.644;2024-03-08T00:43:10;35.87;;;17.40;;
7128;SDS011;3606;52.930;8.644;2024-03-08T00:45:36;33.37;;;16.93;;
7128;SDS011;3606;52.930;8.644;2024-03-08T00:48:07;28.23;;;14.53;;
7128;SDS011;3606;52.930;8.644;2024-03-08T00:50:33;29.07;;;15.90;;
7128;SDS011;3606;52.930;8.644;2024-03-08T00:52:59;33.20;;;16.10;;
7128;SDS011;3606;52.930;8.644;2024-03-08T00:55:25;34.03;;;15.47;;
7128;SDS011;3606;52.930;8.644;2024-03-08T00:57:51;26.80;;;15.80;;
7128;SDS011;3606;52.930;8.644;2024-03-08T01:00:18;35.97;;;16.63;;
7128;SDS011;3606;52.930;8.644;2024-03-08T01:02:46;26.07;;;13.90;;
7128;SDS011;3606;52.930;8.644;2024-03-08T01:05:13;23.67;;;14.67;;
7128;SDS011;3606;52.930;8.644;2024-03-08T01:07:39;29.13;;;16.00;;
7128;SDS011;3606;52.930;8.644;2024-03-08T01:10:04;32.07;;;16.17;;
7128;SDS011;3606;52.930;8.644;2024-03-08T01:12:34;28.77;;;14.53;;
7128;SDS011;3606;52.930;8.644;2024-03-08T01:15:00;28.33;;;15.77;;
7128;SDS011;3606;52.930;8.644;2024-03-08T01:17:26;32.43;;;16.73;;
7128;SDS011;3606;52.930;8.644;2024-03-08T01:19:51;29.50;;;16.23;;
7128;SDS011;3606;52.930;8.644;2024-03-08T01:22:18;26.27;;;14.50;;
7128;SDS011;3606;52.930;8.644;2024-03-08T01:24:44;25.40;;;14.80;;
7128;SDS011;3606;52.930;8.644;2024-03-08T01:27:10;25.17;;;15.33;;
7128;SDS011;3606;52.930;8.644;2024-03-08T01:29:37;29.40;;;15.40;;
7128;SDS011;3606;52.930;8.644;2024-03-08T01:32:03;28.73;;;14.60;;
7128;SDS011;3606;52.930;8.644;2024-03-08T01:34:29;25.03;;;15.07;;
7128;SDS011;3606;52.930;8.644;2024-03-08T01:36:54;29.60;;;15.63;;
7128;SDS011;3606;52.930;8.644;2024-03-08T01:39:23;24.33;;;13.57;;
7128;SDS011;3606;52.930;8.644;2024-03-08T01:41:48;27.50;;;14.40;;
7128;SDS011;3606;52.930;8.644;2024-03-08T01:44:14;31.97;;;14.43;;
7128;SDS011;3606;52.930;8.644;2024-03-08T01:46:46;22.47;;;14.53;;
7128;SDS011;3606;52.930;8.644;2024-03-08T01:49:14;26.77;;;14.83;;
7128;SDS011;3606;52.930;8.644;2024-03-08T01:51:42;30.47;;;14.43;;
7128;SDS011;3606;52.930;8.644;2024-03-08T01:54:07;25.37;;;14.57;;
7128;SDS011;3606;52.930;8.644;2024-03-08T01:56:35;29.73;;;15.63;;
7128;SDS011;3606;52.930;8.644;2024-03-08T01:59:02;25.03;;;14.87;;
7128;SDS011;3606;52.930;8.644;2024-03-08T02:01:28;25.10;;;14.50;;
7128;SDS011;3606;52.930;8.644;2024-03-08T02:03:54;32.20;;;15.00;;
7128;SDS011;3606;52.930;8.644;2024-03-08T02:06:19;27.73;;;14.90;;
7128;SDS011;3606;52.930;8.644;2024-03-08T02:08:45;32.13;;;15.23;;
7128;SDS011;3606;52.930;8.644;2024-03-08T02:11:12;26.00;;;14.00;;
7128;SDS011;3606;52.930;8.644;2024-03-08T02:13:38;31.73;;;14.90;;
7128;SDS011;3606;52.930;8.644;2024-03-08T02:16:03;31.50;;;15.67;;
7128;SDS011;3606;52.930;8.644;2024-03-08T02:18:32;27.10;;;15.23;;
7128;SDS011;3606;52.930;8.644;2024-03-08T02:20:59;31.30;;;15.20;;
7128;SDS011;3606;52.930;8.644;2024-03-08T02:23:27;21.93;;;14.67;;
7128;SDS011;3606;52.930;8.644;2024-03-08T02:25:54;26.50;;;15.03;;
7128;SDS011;3606;52.930;8.644;2024-03-08T02:28:21;28.57;;;14.90;;
7128;SDS011;3606;52.930;8.644;2024-03-08T02:30:47;24.60;;;15.07;;
7128;SDS011;3606;52.930;8.644;2024-03-08T02:33:14;26.67;;;13.90;;
7128;SDS011;3606;52.930;8.644;2024-03-08T02:35:44;28.20;;;15.60;;
7128;SDS011;3606;52.930;8.644;2024-03-08T02:38:16;27.57;;;14.90;;
7128;SDS011;3606;52.930;8.644;2024-03-08T02:40:46;29.63;;;14.70;;
7128;SDS011;3606;52.930;8.644;2024-03-08T02:43:13;28.63;;;16.17;;
7128;SDS011;3606;52.930;8.644;2024-03-08T02:45:40;30.47;;;14.27;;
7128;SDS011;3606;52.930;8.644;2024-03-08T02:48:09;27.80;;;14.67;;
7128;SDS011;3606;52.930;8.644;2024-03-08T02:50:36;29.13;;;15.70;;
7128;SDS011;3606;52.930;8.644;2024-03-08T02:53:02;28.33;;;15.17;;
7128;SDS011;3606;52.930;8.644;2024-03-08T02:55:29;32.27;;;14.90;;
7128;SDS011;3606;52.930;8.644;2024-03-08T02:57:55;28.93;;;15.90;;
7128;SDS011;3606;52.930;8.644;2024-03-08T03:00:21;29.13;;;15.73;;
7128;SDS011;3606;52.930;8.644;2024-03-08T03:02:48;29.33;;;16.27;;
7128;SDS011;3606;52.930;8.644;2024-03-08T03:05:28;24.87;;;13.30;;
7128;SDS011;3606;52.930;8.644;2024-03-08T03:07:57;30.53;;;16.27;;
7128;SDS011;3606;52.930;8.644;2024-03-08T03:10:23;30.00;;;15.00;;
7128;SDS011;3606;52.930;8.644;2024-03-08T03:12:49;28.00;;;15.67;;
7128;SDS011;3606;52.930;8.644;2024-03-08T03:15:15;28.47;;;15.20;;
7128;SDS011;3606;52.930;8.644;2024-03-08T03:17:45;29.07;;;15.60;;
7128;SDS011;3606;52.930;8.644;2024-03-08T03:20:17;27.70;;;14.30;;
7128;SDS011;3606;52.930;8.644;2024-03-08T03:22:51;26.60;;;15.00;;
7128;SDS011;3606;52.930;8.644;2024-03-08T03:25:20;26.27;;;14.47;;
7128;SDS011;3606;52.930;8.644;2024-03-08T03:27:53;26.57;;;14.07;;
7128;SDS011;3606;52.930;8.644;2024-03-08T03:30:23;28.63;;;14.33;;
7128;SDS011;3606;52.930;8.644;2024-03-08T03:32:51;25.00;;;13.77;;
7128;SDS011;3606;52.930;8.644;2024-03-08T03:35:17;23.23;;;14.43;;
7128;SDS011;3606;52.930;8.644;2024-03-08T03:37:43;24.27;;;14.33;;
7128;SDS011;3606;52.930;8.644;2024-03-08T03:40:28;26.73;;;14.63;;
7128;SDS011;3606;52.930;8.644;2024-03-08T03:42:54;31.67;;;16.00;;
7128;SDS011;3606;52.930;8.644;2024-03-08T03:45:20;29.57;;;15.27;;
7128;SDS011;3606;52.930;8.644;2024-03-08T03:47:46;21.40;;;14.20;;
7128;SDS011;3606;52.930;8.644;2024-03-08T03:50:11;28.30;;;15.37;;
7128;SDS011;3606;52.930;8.644;2024-03-08T03:52:37;29.87;;;15.63;;
7128;SDS011;3606;52.930;8.644;2024-03-08T03:55:03;31.53;;;15.20;;
7128;SDS011;3606;52.930;8.644;2024-03-08T03:57:30;31.80;;;15.87;;
7128;SDS011;3606;52.930;8.644;2024-03-08T03:59:56;29.63;;;14.97;;
7128;SDS011;3606;52.930;8.644;2024-03-08T04:02:23;29.30;;;15.57;;
7128;SDS011;3606;52.930;8.644;2024-03-08T04:04:49;29.20;;;14.97;;
7128;SDS011;3606;52.930;8.644;2024-03-08T04:07:15;28.43;;;15.60;;
7128;SDS011;3606;52.930;8.644;2024-03-08T04:09:40;31.10;;;16.60;;
7128;SDS011;3606;52.930;8.644;2024-03-08T04:12:06;29.50;;;14.73;;
7128;SDS011;3606;52.930;8.644;2024-03-08T04:14:32;27.10;;;14.40;;
7128;SDS011;3606;52.930;8.644;2024-03-08T04:16:59;31.57;;;16.53;;
7128;SDS011;3606;52.930;8.644;2024-03-08T04:19:25;28.57;;;15.93;;
7128;SDS011;3606;52.930;8.644;2024-03-08T04:21:53;28.37;;;15.80;;
7128;SDS011;3606;52.930;8.644;2024-03-08T04:24:18;27.33;;;15.93;;
7128;SDS011;3606;52.930;8.644;2024-03-08T04:26:45;33.63;;;15.27;;
7128;SDS011;3606;52.930;8.644;2024-03-08T04:29:11;33.23;;;15.67;;
7128;SDS011;3606;52.930;8.644;2024-03-08T04:31:39;32.30;;;16.33;;
7128;SDS011;3606;52.930;8.644;2024-03-08T04:34:05;27.20;;;15.07;;
7128;SDS011;3606;52.930;8.644;2024-03-08T04:36:31;26.27;;;15.63;;
7128;SDS011;3606;52.930;8.644;2024-03-08T04:38:56;26.50;;;15.50;;
7128;SDS011;3606;52.930;8.644;2024-03-08T04:41:22;31.80;;;16.17;;
7128;SDS011;3606;52.930;8.644;2024-03-08T04:43:48;24.47;;;15.03;;
7128;SDS011;3606;52.930;8.644;2024-03-08T04:46:14;24.90;;;14.83;;
7128;SDS011;3606;52.930;8.644;2024-03-08T04:48:41;24.83;;;15.33;;
7128;SDS011;3606;52.930;8.644;2024-03-08T04:51:08;26.73;;;15.43;;
7128;SDS011;3606;52.930;8.644;2024-03-08T04:53:34;29.37;;;16.53;;
7128;SDS011;3606;52.930;8.644;2024-03-08T04:56:00;29.97;;;15.17;;
7128;SDS011;3606;52.930;8.644;2024-03-08T04:58:30;35.70;;;16.57;;
7128;SDS011;3606;52.930;8.644;2024-03-08T05:00:59;33.10;;;16.77;;
7128;SDS011;3606;52.930;8.644;2024-03-08T05:03:25;33.23;;;15.80;;
7128;SDS011;3606;52.930;8.644;2024-03-08T05:05:51;30.33;;;15.67;;
7128;SDS011;3606;52.930;8.644;2024-03-08T05:08:16;33.50;;;16.63;;
7128;SDS011;3606;52.930;8.644;2024-03-08T05:10:43;27.80;;;15.97;;
7128;SDS011;3606;52.930;8.644;2024-03-08T05:13:09;28.70;;;16.23;;
7128;SDS011;3606;52.930;8.644;2024-03-08T05:15:35;28.73;;;16.83;;
7128;SDS011;3606;52.930;8.644;2024-03-08T05:18:01;27.33;;;15.73;;
7128;SDS011;3606;52.930;8.644;2024-03-08T05:20:27;29.40;;;16.30;;
7128;SDS011;3606;52.930;8.644;2024-03-08T05:22:53;27.87;;;15.33;;
7128;SDS011;3606;52.930;8.644;2024-03-08T05:25:18;28.27;;;15.63;;
7128;SDS011;3606;52.930;8.644;2024-03-08T05:27:44;33.33;;;16.93;;
7128;SDS011;3606;52.930;8.644;2024-03-08T05:30:09;35.57;;;17.00;;
7128;SDS011;3606;52.930;8.644;2024-03-08T05:32:40;31.40;;;16.70;;
7128;SDS011;3606;52.930;8.644;2024-03-08T05:35:10;32.73;;;16.57;;
7128;SDS011;3606;52.930;8.644;2024-03-08T05:37:37;33.53;;;18.43;;
7128;SDS011;3606;52.930;8.644;2024-03-08T05:40:03;30.60;;;16.70;;
7128;SDS011;3606;52.930;8.644;2024-03-08T05:42:34;30.67;;;17.13;;
7128;SDS011;3606;52.930;8.644;2024-03-08T05:45:00;33.53;;;17.40;;
7128;SDS011;3606;52.930;8.644;2024-03-08T05:47:25;35.27;;;16.50;;
7128;SDS011;3606;52.930;8.644;2024-03-08T05:49:51;27.37;;;16.00;;
7128;SDS011;3606;52.930;8.644;2024-03-08T05:52:18;36.57;;;17.57;;
7128;SDS011;3606;52.930;8.644;2024-03-08T05:54:44;32.57;;;17.53;;
7128;SDS011;3606;52.930;8.644;2024-03-08T05:57:10;30.37;;;16.17;;
7128;SDS011;3606;52.930;8.644;2024-03-08T05:59:36;31.97;;;18.30;;
7128;SDS011;3606;52.930;8.644;2024-03-08T06:02:02;29.87;;;16.90;;
7128;SDS011;3606;52.930;8.644;2024-03-08T06:04:28;30.77;;;16.93;;
7128;SDS011;3606;52.930;8.644;2024-03-08T06:06:54;33.23;;;17.70;;
7128;SDS011;3606;52.930;8.644;2024-03-08T06:09:22;32.57;;;17.43;;
7128;SDS011;3606;52.930;8.644;2024-03-08T06:11:48;41.07;;;18.73;;
7128;SDS011;3606;52.930;8.644;2024-03-08T06:14:14;33.33;;;18.23;;
7128;SDS011;3606;52.930;8.644;2024-03-08T06:16:43;29.80;;;17.57;;
7128;SDS011;3606;52.930;8.644;2024-03-08T06:19:09;34.17;;;17.97;;
7128;SDS011;3606;52.930;8.644;2024-03-08T06:21:35;34.70;;;17.53;;
7128;SDS011;3606;52.930;8.644;2024-03-08T06:24:01;33.20;;;18.83;;
7128;SDS011;3606;52.930;8.644;2024-03-08T06:26:27;34.33;;;18.87;;
7128;SDS011;3606;52.930;8.644;2024-03-08T06:28:56;37.43;;;19.13;;
7128;SDS011;3606;52.930;8.644;2024-03-08T06:31:22;39.93;;;19.10;;
7128;SDS011;3606;52.930;8.644;2024-03-08T06:33:47;43.83;;;18.97;;
7128;SDS011;3606;52.930;8.644;2024-03-08T06:36:16;40.17;;;18.83;;
7128;SDS011;3606;52.930;8.644;2024-03-08T06:38:46;36.60;;;17.87;;
7128;SDS011;3606;52.930;8.644;2024-03-08T06:41:12;36.37;;;20.13;;
7128;SDS011;3606;52.930;8.644;2024-03-08T06:43:40;30.30;;;18.03;;
7128;SDS011;3606;52.930;8.644;2024-03-08T06:46:10;37.23;;;19.90;;
7128;SDS011;3606;52.930;8.644;2024-03-08T06:48:37;38.80;;;19.60;;
7128;SDS011;3606;52.930;8.644;2024-03-08T06:51:03;31.70;;;19.07;;
7128;SDS011;3606;52.930;8.644;2024-03-08T06:53:30;34.27;;;18.90;;
7128;SDS011;3606;52.930;8.644;2024-03-08T06:55:56;35.47;;;19.37;;
7128;SDS011;3606;52.930;8.644;2024-03-08T06:58:22;31.80;;;17.83;;
7128;SDS011;3606;52.930;8.644;2024-03-08T07:00:48;36.03;;;19.87;;
7128;SDS011;3606;52.930;8.644;2024-03-08T07:03:17;36.43;;;20.07;;
7128;SDS011;3606;52.930;8.644;2024-03-08T07:05:43;40.73;;;19.70;;
7128;SDS011;3606;52.930;8.644;2024-03-08T07:08:08;36.43;;;20.47;;
7128;SDS011;3606;52.930;8.644;2024-03-08T07:10:34;36.03;;;20.10;;
7128;SDS011;3606;52.930;8.644;2024-03-08T07:13:02;33.60;;;18.50;;
7128;SDS011;3606;52.930;8.644;2024-03-08T07:15:27;36.53;;;20.77;;
7128;SDS011;3606;52.930;8.644;2024-03-08T07:17:54;31.50;;;18.00;;
7128;SDS011;3606;52.930;8.644;2024-03-08T07:20:20;34.97;;;19.30;;
7128;SDS011;3606;52.930;8.644;2024-03-08T07:22:46;32.83;;;19.43;;
7128;SDS011;3606;52.930;8.644;2024-03-08T07:25:12;31.03;;;19.97;;
7128;SDS011;3606;52.930;8.644;2024-03-08T07:27:48;29.77;;;18.97;;
7128;SDS011;3606;52.930;8.644;2024-03-08T07:30:16;30.57;;;18.33;;
7128;SDS011;3606;52.930;8.644;2024-03-08T07:33:00;29.27;;;17.83;;
7128;SDS011;3606;52.930;8.644;2024-03-08T07:35:27;25.83;;;16.27;;
7128;SDS011;3606;52.930;8.644;2024-03-08T07:37:53;28.90;;;17.83;;
7128;SDS011;3606;52.930;8.644;2024-03-08T07:40:20;31.73;;;17.53;;
7128;SDS011;3606;52.930;8.644;2024-03-08T07:42:49;28.17;;;16.67;;
7128;SDS011;3606;52.930;8.644;2024-03-08T07:45:15;26.23;;;15.80;;
7128;SDS011;3606;52.930;8.644;2024-03-08T07:47:41;24.30;;;15.00;;
7128;SDS011;3606;52.930;8.644;2024-03-08T07:50:07;26.40;;;16.77;;
7128;SDS011;3606;52.930;8.644;2024-03-08T07:52:35;26.83;;;15.20;;
7128;SDS011;3606;52.930;8.644;2024-03-08T07:55:04;23.33;;;14.83;;
7128;SDS011;3606;52.930;8.644;2024-03-08T07:57:30;23.67;;;15.83;;
7128;SDS011;3606;52.930;8.644;2024-03-08T07:59:57;27.33;;;15.47;;
7128;SDS011;3606;52.930;8.644;2024-03-08T08:02:23;24.43;;;15.50;;
7128;SDS011;3606;52.930;8.644;2024-03-08T08:04:48;22.23;;;14.30;;
7128;SDS011;3606;52.930;8.644;2024-03-08T08:07:14;25.00;;;15.07;;
7128;SDS011;3606;52.930;8.644;2024-03-08T08:09:40;22.70;;;14.70;;
7128;SDS011;3606;52.930;8.644;2024-03-08T08:12:07;22.53;;;14.23;;
7128;SDS011;3606;52.930;8.644;2024-03-08T08:14:37;28.50;;;15.90;;
7128;SDS011;3606;52.930;8.644;2024-03-08T08:17:03;22.43;;;14.50;;
7128;SDS011;3606;52.930;8.644;2024-03-08T08:19:29;22.27;;;14.60;;
7128;SDS011;3606;52.930;8.644;2024-03-08T08:21:55;22.10;;;14.90;;
7128;SDS011;3606;52.930;8.644;2024-03-08T08:24:20;24.20;;;14.37;;
7128;SDS011;3606;52.930;8.644;2024-03-08T08:26:47;24.70;;;14.93;;
7128;SDS011;3606;52.930;8.644;2024-03-08T08:29:12;24.90;;;14.80;;
7128;SDS011;3606;52.930;8.644;2024-03-08T08:31:38;24.87;;;15.23;;
7128;SDS011;3606;52.930;8.644;2024-03-08T08:34:04;25.30;;;16.10;;
7128;SDS011;3606;52.930;8.644;2024-03-08T08:36:31;24.47;;;15.50;;
7128;SDS011;3606;52.930;8.644;2024-03-08T08:38:56;22.17;;;13.60;;
7128;SDS011;3606;52.930;8.644;2024-03-08T08:41:23;22.80;;;14.07;;
7128;SDS011;3606;52.930;8.644;2024-03-08T08:43:49;23.07;;;14.20;;
7128;SDS011;3606;52.930;8.644;2024-03-08T08:46:18;22.67;;;14.53;;
7128;SDS011;3606;52.930;8.644;2024-03-08T08:48:44;23.97;;;14.60;;
7128;SDS011;3606;52.930;8.644;2024-03-08T08:51:12;25.17;;;14.77;;
7128;SDS011;3606;52.930;8.644;2024-03-08T08:53:39;27.70;;;15.10;;
7128;SDS011;3606;52.930;8.644;2024-03-08T08:56:12;20.43;;;13.70;;
7128;SDS011;3606;52.930;8.644;2024-03-08T08:58:39;22.07;;;14.00;;
7128;SDS011;3606;52.930;8.644;2024-03-08T09:01:06;22.53;;;13.53;;
7128;SDS011;3606;52.930;8.644;2024-03-08T09:03:32;18.60;;;13.43;;
7128;SDS011;3606;52.930;8.644;2024-03-08T09:05:59;23.80;;;14.70;;
7128;SDS011;3606;52.930;8.644;2024-03-08T09:08:25;28.07;;;14.10;;
7128;SDS011;3606;52.930;8.644;2024-03-08T09:10:51;21.73;;;13.87;;
7128;SDS011;3606;52.930;8.644;2024-03-08T09:13:16;18.13;;;12.83;;
7128;SDS011;3606;52.930;8.644;2024-03-08T09:15:43;22.43;;;13.50;;
7128;SDS011;3606;52.930;8.644;2024-03-08T09:18:09;21.80;;;14.63;;
7128;SDS011;3606;52.930;8.644;2024-03-08T09:20:35;17.40;;;13.07;;
7128;SDS011;3606;52.930;8.644;2024-03-08T09:23:01;20.43;;;14.30;;
7128;SDS011;3606;52.930;8.644;2024-03-08T09:25:28;19.60;;;13.73;;
7128;SDS011;3606;52.930;8.644;2024-03-08T09:27:54;20.53;;;14.23;;
7128;SDS011;3606;52.930;8.644;2024-03-08T09:30:20;20.23;;;13.47;;
7128;SDS011;3606;52.930;8.644;2024-03-08T09:32:46;18.73;;;13.13;;
7128;SDS011;3606;52.930;8.644;2024-03-08T09:35:12;20.57;;;13.87;;
7128;SDS011;3606;52.930;8.644;2024-03-08T09:37:38;21.70;;;13.27;;
7128;SDS011;3606;52.930;8.644;2024-03-08T09:40:04;20.40;;;12.87;;
7128;SDS011;3606;52.930;8.644;2024-03-08T09:42:34;19.33;;;13.57;;
7128;SDS011;3606;52.930;8.644;2024-03-08T09:45:04;21.77;;;13.27;;
7128;SDS011;3606;52.930;8.644;2024-03-08T09:47:42;19.67;;;13.33;;
7128;SDS011;3606;52.930;8.644;2024-03-08T09:50:09;22.70;;;14.80;;
7128;SDS011;3606;52.930;8.644;2024-03-08T09:52:38;20.47;;;13.67;;
7128;SDS011;3606;52.930;8.644;2024-03-08T09:55:05;19.80;;;14.30;;
7128;SDS011;3606;52.930;8.644;2024-03-08T09:57:32;22.80;;;14.47;;
7128;SDS011;3606;52.930;8.644;2024-03-08T09:59:58;22.37;;;14.53;;
7128;SDS011;3606;52.930;8.644;2024-03-08T10:02:24;19.20;;;13.80;;
7128;SDS011;3606;52.930;8.644;2024-03-08T10:04:51;21.90;;;14.10;;
7128;SDS011;3606;52.930;8.644;2024-03-08T10:07:18;22.27;;;14.57;;
7128;SDS011;3606;52.930;8.644;2024-03-08T10:09:44;20.17;;;14.03;;
7128;SDS011;3606;52.930;8.644;2024-03-08T10:12:15;19.87;;;13.63;;
7128;SDS011;3606;52.930;8.644;2024-03-08T10:14:42;21.53;;;14.37;;
7128;SDS011;3606;52.930;8.644;2024-03-08T10:17:08;25.37;;;14.03;;
7128;SDS011;3606;52.930;8.644;2024-03-08T10:19:34;21.07;;;14.70;;
7128;SDS011;3606;52.930;8.644;2024-03-08T10:22:00;18.87;;;13.23;;
7128;SDS011;3606;52.930;8.644;2024-03-08T10:24:26;20.03;;;14.27;;
7128;SDS011;3606;52.930;8.644;2024-03-08T10:26:58;19.27;;;14.00;;
7128;SDS011;3606;52.930;8.644;2024-03-08T10:29:29;21.57;;;14.13;;
7128;SDS011;3606;52.930;8.644;2024-03-08T10:31:56;20.23;;;14.17;;
7128;SDS011;3606;52.930;8.644;2024-03-08T10:34:22;19.80;;;14.30;;
7128;SDS011;3606;52.930;8.644;2024-03-08T10:36:49;20.57;;;15.00;;
7128;SDS011;3606;52.930;8.644;2024-03-08T10:39:23;22.53;;;14.60;;
7128;SDS011;3606;52.930;8.644;2024-03-08T10:41:54;22.37;;;14.40;;
7128;SDS011;3606;52.930;8.644;2024-03-08T10:47:18;20.43;;;14.50;;
7128;SDS011;3606;52.930;8.644;2024-03-08T10:52:17;22.33;;;15.03;;
7128;SDS011;3606;52.930;8.644;2024-03-08T10:54:44;24.37;;;15.73;;
7128;SDS011;3606;52.930;8.644;2024-03-08T10:57:12;22.47;;;13.70;;
7128;SDS011;3606;52.930;8.644;2024-03-08T10:59:40;21.97;;;14.77;;
7128;SDS011;3606;52.930;8.644;2024-03-08T11:02:08;23.23;;;15.33;;
7128;SDS011;3606;52.930;8.644;2024-03-08T11:04:37;20.63;;;14.80;;
7128;SDS011;3606;52.930;8.644;2024-03-08T11:07:03;20.90;;;14.93;;
7128;SDS011;3606;52.930;8.644;2024-03-08T11:09:32;17.93;;;14.33;;
7128;SDS011;3606;52.930;8.644;2024-03-08T11:12:18;21.73;;;14.97;;
7128;SDS011;3606;52.930;8.644;2024-03-08T11:15:00;22.30;;;14.87;;
7128;SDS011;3606;52.930;8.644;2024-03-08T11:20:18;23.07;;;14.50;;
7128;SDS011;3606;52.930;8.644;2024-03-08T11:22:49;21.30;;;14.20;;
7128;SDS011;3606;52.930;8.644;2024-03-08T11:28:08;20.47;;;14.80;;
7128;SDS011;3606;52.930;8.644;2024-03-08T11:30:43;19.00;;;13.53;;
7128;SDS011;3606;52.930;8.644;2024-03-08T11:33:13;22.70;;;14.67;;
7128;SDS011;3606;52.930;8.644;2024-03-08T11:35:39;20.53;;;15.03;;
7128;SDS011;3606;52.930;8.644;2024-03-08T11:38:07;21.03;;;14.00;;
7128;SDS011;3606;52.930;8.644;2024-03-08T11:40:33;24.57;;;14.17;;
7128;SDS011;3606;52.930;8.644;2024-03-08T11:43:00;20.67;;;14.53;;
7128;SDS011;3606;52.930;8.644;2024-03-08T11:45:29;23.90;;;15.57;;
7128;SDS011;3606;52.930;8.644;2024-03-08T11:47:54;19.43;;;14.00;;
7128;SDS011;3606;52.930;8.644;2024-03-08T11:50:20;23.10;;;14.03;;
7128;SDS011;3606;52.930;8.644;2024-03-08T11:52:49;22.10;;;14.07;;
7128;SDS011;3606;52.930;8.644;2024-03-08T11:55:15;23.63;;;14.13;;
7128;SDS011;3606;52.930;8.644;2024-03-08T11:57:41;22.00;;;15.63;;
7128;SDS011;3606;52.930;8.644;2024-03-08T12:00:08;23.57;;;15.30;;
7128;SDS011;3606;52.930;8.644;2024-03-08T12:02:46;19.87;;;13.87;;
7128;SDS011;3606;52.930;8.644;2024-03-08T12:05:15;26.90;;;14.80;;
7128;SDS011;3606;52.930;8.644;2024-03-08T12:07:41;23.00;;;14.83;;
7128;SDS011;3606;52.930;8.644;2024-03-08T12:10:20;22.53;;;14.03;;
7128;SDS011;3606;52.930;8.644;2024-03-08T12:12:47;20.10;;;15.13;;
7128;SDS011;3606;52.930;8.644;2024-03-08T12:15:15;21.63;;;15.00;;
7128;SDS011;3606;52.930;8.644;2024-03-08T12:17:43;21.90;;;14.87;;
7128;SDS011;3606;52.930;8.644;2024-03-08T12:20:28;19.53;;;14.47;;
7128;SDS011;3606;52.930;8.644;2024-03-08T12:22:57;21.90;;;13.43;;
7128;SDS011;3606;52.930;8.644;2024-03-08T12:25:27;20.73;;;14.47;;
7128;SDS011;3606;52.930;8.644;2024-03-08T12:27:56;21.30;;;14.70;;
7128;SDS011;3606;52.930;8.644;2024-03-08T12:30:31;20.83;;;14.37;;
7128;SDS011;3606;52.930;8.644;2024-03-08T12:32:59;17.67;;;12.87;;
7128;SDS011;3606;52.930;8.644;2024-03-08T12:35:26;20.50;;;13.27;;
7128;SDS011;3606;52.930;8.644;2024-03-08T12:37:53;20.23;;;14.10;;
7128;SDS011;3606;52.930;8.644;2024-03-08T12:40:26;21.77;;;13.30;;
7128;SDS011;3606;52.930;8.644;2024-03-08T12:42:57;19.07;;;13.27;;
7128;SDS011;3606;52.930;8.644;2024-03-08T12:45:24;21.10;;;14.20;;
7128;SDS011;3606;52.930;8.644;2024-03-08T12:47:53;17.07;;;12.23;;
7128;SDS011;3606;52.930;8.644;2024-03-08T12:50:20;18.83;;;13.90;;
7128;SDS011;3606;52.930;8.644;2024-03-08T12:52:46;19.47;;;13.23;;
7128;SDS011;3606;52.930;8.644;2024-03-08T12:55:12;21.37;;;14.53;;
7128;SDS011;3606;52.930;8.644;2024-03-08T12:57:39;18.90;;;13.47;;
7128;SDS011;3606;52.930;8.644;2024-03-08T13:00:05;19.33;;;13.90;;
7128;SDS011;3606;52.930;8.644;2024-03-08T13:02:31;20.93;;;13.83;;
7128;SDS011;3606;52.930;8.644;2024-03-08T13:04:58;19.33;;;13.50;;
7128;SDS011;3606;52.930;8.644;2024-03-08T13:07:23;20.37;;;13.40;;
7128;SDS011;3606;52.930;8.644;2024-03-08T13:09:53;18.60;;;13.30;;
7128;SDS011;3606;52.930;8.644;2024-03-08T13:12:20;19.13;;;12.63;;
7128;SDS011;3606;52.930;8.644;2024-03-08T13:14:46;18.53;;;13.03;;
7128;SDS011;3606;52.930;8.644;2024-03-08T13:17:13;18.13;;;12.90;;
7128;SDS011;3606;52.930;8.644;2024-03-08T13:19:39;19.43;;;12.67;;
7128;SDS011;3606;52.930;8.644;2024-03-08T13:22:06;19.70;;;13.23;;
7128;SDS011;3606;52.930;8.644;2024-03-08T13:24:32;19.03;;;12.83;;
7128;SDS011;3606;52.930;8.644;2024-03-08T13:26:59;20.73;;;13.10;;
7128;SDS011;3606;52.930;8.644;2024-03-08T13:29:25;18.07;;;13.07;;
7128;SDS011;3606;52.930;8.644;2024-03-08T13:31:51;19.17;;;13.10;;
7128;SDS011;3606;52.930;8.644;2024-03-08T13:34:21;17.50;;;12.57;;
7128;SDS011;3606;52.930;8.644;2024-03-08T13:36:53;17.13;;;12.90;;
7128;SDS011;3606;52.930;8.644;2024-03-08T13:39:24;21.77;;;12.97;;
7128;SDS011;3606;52.930;8.644;2024-03-08T13:41:51;19.83;;;12.90;;
7128;SDS011;3606;52.930;8.644;2024-03-08T13:44:16;18.57;;;13.47;;
7128;SDS011;3606;52.930;8.644;2024-03-08T13:46:42;20.57;;;12.63;;
7128;SDS011;3606;52.930;8.644;2024-03-08T13:49:08;17.10;;;11.63;;
7128;SDS011;3606;52.930;8.644;2024-03-08T13:51:35;19.73;;;12.13;;
7128;SDS011;3606;52.930;8.644;2024-03-08T13:54:01;20.60;;;13.10;;
7128;SDS011;3606;52.930;8.644;2024-03-08T13:56:27;16.07;;;12.30;;
7128;SDS011;3606;52.930;8.644;2024-03-08T13:58:56;20.50;;;12.50;;
7128;SDS011;3606;52.930;8.644;2024-03-08T14:01:22;18.00;;;12.40;;
7128;SDS011;3606;52.930;8.644;2024-03-08T14:03:48;19.93;;;12.00;;
7128;SDS011;3606;52.930;8.644;2024-03-08T14:06:14;18.23;;;13.20;;
7128;SDS011;3606;52.930;8.644;2024-03-08T14:08:39;15.83;;;11.73;;
7128;SDS011;3606;52.930;8.644;2024-03-08T14:11:05;18.53;;;12.70;;
7128;SDS011;3606;52.930;8.644;2024-03-08T14:13:41;17.37;;;12.13;;
7128;SDS011;3606;52.930;8.644;2024-03-08T14:16:10;15.80;;;11.90;;
7128;SDS011;3606;52.930;8.644;2024-03-08T14:18:36;15.67;;;11.97;;
7128;SDS011;3606;52.930;8.644;2024-03-08T14:21:03;20.57;;;13.50;;
7128;SDS011;3606;52.930;8.644;2024-03-08T14:23:29;19.17;;;12.43;;
7128;SDS011;3606;52.930;8.644;2024-03-08T14:25:55;20.13;;;12.97;;
7128;SDS011;3606;52.930;8.644;2024-03-08T14:28:20;21.40;;;13.87;;
7128;SDS011;3606;52.930;8.644;2024-03-08T14:30:47;22.17;;;13.43;;
7128;SDS011;3606;52.930;8.644;2024-03-08T14:33:14;18.97;;;13.33;;
7128;SDS011;3606;52.930;8.644;2024-03-08T14:35:41;18.97;;;13.13;;
7128;SDS011;3606;52.930;8.644;2024-03-08T14:38:08;21.03;;;13.17;;
7128;SDS011;3606;52.930;8.644;2024-03-08T14:40:33;18.67;;;12.93;;
7128;SDS011;3606;52.930;8.644;2024-03-08T14:43:01;20.37;;;13.40;;
7128;SDS011;3606;52.930;8.644;2024-03-08T14:45:27;20.37;;;13.17;;
7128;SDS011;3606;52.930;8.644;2024-03-08T14:47:52;21.77;;;13.50;;
7128;SDS011;3606;52.930;8.644;2024-03-08T14:50:20;19.00;;;12.60;;
7128;SDS011;3606;52.930;8.644;2024-03-08T14:52:47;20.87;;;13.07;;
7128;SDS011;3606;52.930;8.644;2024-03-08T14:55:13;16.70;;;12.23;;
7128;SDS011;3606;52.930;8.644;2024-03-08T14:57:44;19.37;;;12.83;;
7128;SDS011;3606;52.930;8.644;2024-03-08T15:00:11;21.50;;;13.73;;